sensor_id;sensor_type;location;lat;lon;timestamp;temperature;humidity
17385;DHT22;8810;48.680;8.894;2022-09-09T00:01:43;13.80;99.90
17385;DHT22;8810;48.680;8.894;2022-09-09T00:04:16;13.90;99.90
17385;DHT22;8810;48.680;8.894;2022-09-09T00:06:53;13.90;99.90
17385;DHT22;8810;48.680;8.894;2022-09-09T00:09:24;13.90;99.90
17385;DHT22;8810;48.680;8.894;2022-09-09T00:11:57;14.00;99.90
17385;DHT22;8810;48.680;8.894;2022-09-09T00:14:34;14.00;99.90
17385;DHT22;8810;48.680;8.894;2022-09-09T00:17:08;13.90;99.90
17385;DHT22;8810;48.680;8.894;2022-09-09T00:19:41;13.90;99.90
17385;DHT22;8810;48.680;8.894;2022-09-09T00:22:17;13.90;99.90
17385;DHT22;8810;48.680;8.894;2022-09-09T00:24:46;13.90;99.90
17385;DHT22;8810;48.680;8.894;2022-09-09T00:27:19;14.00;99.90
17385;DHT22;8810;48.680;8.894;2022-09-09T00:29:53;14.00;99.90
17385;DHT22;8810;48.680;8.894;2022-09-09T00:32:22;14.10;99.90
17385;DHT22;8810;48.680;8.894;2022-09-09T00:34:53;14.00;99.90
17385;DHT22;8810;48.680;8.894;2022-09-09T00:37:22;14.00;99.90
17385;DHT22;8810;48.680;8.894;2022-09-09T00:39:52;13.90;99.90
17385;DHT22;8810;48.680;8.894;2022-09-09T00:42:25;14.00;99.90
17385;DHT22;8810;48.680;8.894;2022-09-09T00:44:59;14.00;99.90
17385;DHT22;8810;48.680;8.894;2022-09-09T00:47:43;14.00;99.90
17385;DHT22;8810;48.680;8.894;2022-09-09T00:50:30;14.00;99.90
17385;DHT22;8810;48.680;8.894;2022-09-09T00:53:08;14.10;99.90
17385;DHT22;8810;48.680;8.894;2022-09-09T00:55:44;14.10;99.90
17385;DHT22;8810;48.680;8.894;2022-09-09T00:58:13;14.10;99.90
17385;DHT22;8810;48.680;8.894;2022-09-09T01:00:44;14.10;99.90
17385;DHT22;8810;48.680;8.894;2022-09-09T01:03:21;14.20;99.90
17385;DHT22;8810;48.680;8.894;2022-09-09T01:05:57;14.20;99.90
17385;DHT22;8810;48.680;8.894;2022-09-09T01:08:45;14.20;99.90
17385;DHT22;8810;48.680;8.894;2022-09-09T01:11:20;14.10;99.90
17385;DHT22;8810;48.680;8.894;2022-09-09T01:13:52;14.20;99.90
17385;DHT22;8810;48.680;8.894;2022-09-09T01:16:21;14.10;99.90
17385;DHT22;8810;48.680;8.894;2022-09-09T01:18:51;14.10;99.90
17385;DHT22;8810;48.680;8.894;2022-09-09T01:21:25;14.10;99.90
17385;DHT22;8810;48.680;8.894;2022-09-09T01:24:10;14.10;99.90
17385;DHT22;8810;48.680;8.894;2022-09-09T01:26:41;14.10;99.90
17385;DHT22;8810;48.680;8.894;2022-09-09T01:29:11;14.10;99.90
17385;DHT22;8810;48.680;8.894;2022-09-09T01:31:40;14.10;99.90
17385;DHT22;8810;48.680;8.894;2022-09-09T01:34:11;14.10;99.90
17385;DHT22;8810;48.680;8.894;2022-09-09T01:36:42;14.00;99.90
17385;DHT22;8810;48.680;8.894;2022-09-09T01:39:09;14.00;99.90
17385;DHT22;8810;48.680;8.894;2022-09-09T01:41:37;14.00;99.90
17385;DHT22;8810;48.680;8.894;2022-09-09T01:44:05;14.00;99.90
17385;DHT22;8810;48.680;8.894;2022-09-09T01:46:32;13.90;99.90
17385;DHT22;8810;48.680;8.894;2022-09-09T01:49:01;13.90;99.90
17385;DHT22;8810;48.680;8.894;2022-09-09T01:51:28;13.90;99.90
17385;DHT22;8810;48.680;8.894;2022-09-09T01:53:55;13.80;99.90
17385;DHT22;8810;48.680;8.894;2022-09-09T01:56:34;13.80;99.90
17385;DHT22;8810;48.680;8.894;2022-09-09T01:59:24;13.80;99.90
17385;DHT22;8810;48.680;8.894;2022-09-09T02:02:01;13.80;99.90
17385;DHT22;8810;48.680;8.894;2022-09-09T02:04:38;13.80;99.90
17385;DHT22;8810;48.680;8.894;2022-09-09T02:07:15;13.70;99.90
17385;DHT22;8810;48.680;8.894;2022-09-09T02:09:47;13.70;99.90
17385;DHT22;8810;48.680;8.894;2022-09-09T02:12:19;13.70;99.90
17385;DHT22;8810;48.680;8.894;2022-09-09T02:14:55;13.70;99.90
17385;DHT22;8810;48.680;8.894;2022-09-09T02:17:26;13.70;99.90
17385;DHT22;8810;48.680;8.894;2022-09-09T02:19:58;13.60;99.90
17385;DHT22;8810;48.680;8.894;2022-09-09T02:22:27;13.70;99.90
17385;DHT22;8810;48.680;8.894;2022-09-09T02:24:58;13.60;99.90
17385;DHT22;8810;48.680;8.894;2022-09-09T02:27:26;13.60;99.90
17385;DHT22;8810;48.680;8.894;2022-09-09T02:29:56;13.50;99.90
17385;DHT22;8810;48.680;8.894;2022-09-09T02:32:24;13.50;99.90
17385;DHT22;8810;48.680;8.894;2022-09-09T02:34:55;13.50;99.90
17385;DHT22;8810;48.680;8.894;2022-09-09T02:37:26;13.50;99.90
17385;DHT22;8810;48.680;8.894;2022-09-09T02:39:54;13.50;99.90
17385;DHT22;8810;48.680;8.894;2022-09-09T02:42:21;13.50;99.90
17385;DHT22;8810;48.680;8.894;2022-09-09T02:44:49;13.40;99.90
17385;DHT22;8810;48.680;8.894;2022-09-09T02:47:30;13.40;99.90
17385;DHT22;8810;48.680;8.894;2022-09-09T02:50:07;13.40;99.90
17385;DHT22;8810;48.680;8.894;2022-09-09T02:52:42;13.40;99.90
17385;DHT22;8810;48.680;8.894;2022-09-09T02:55:18;13.40;99.90
17385;DHT22;8810;48.680;8.894;2022-09-09T02:57:48;13.30;99.90
17385;DHT22;8810;48.680;8.894;2022-09-09T03:00:21;13.30;99.90
17385;DHT22;8810;48.680;8.894;2022-09-09T03:02:51;13.30;99.90
17385;DHT22;8810;48.680;8.894;2022-09-09T03:05:18;13.30;99.90
17385;DHT22;8810;48.680;8.894;2022-09-09T03:07:45;13.30;99.90
17385;DHT22;8810;48.680;8.894;2022-09-09T03:10:12;13.30;99.90
17385;DHT22;8810;48.680;8.894;2022-09-09T03:12:39;13.30;99.90
17385;DHT22;8810;48.680;8.894;2022-09-09T03:15:07;13.20;99.90
17385;DHT22;8810;48.680;8.894;2022-09-09T03:17:35;13.20;99.90
17385;DHT22;8810;48.680;8.894;2022-09-09T03:20:04;13.20;99.90
17385;DHT22;8810;48.680;8.894;2022-09-09T03:22:31;13.20;99.90
17385;DHT22;8810;48.680;8.894;2022-09-09T03:24:58;13.10;99.90
17385;DHT22;8810;48.680;8.894;2022-09-09T03:27:25;13.10;99.90
17385;DHT22;8810;48.680;8.894;2022-09-09T03:29:52;13.10;99.90
17385;DHT22;8810;48.680;8.894;2022-09-09T03:32:19;13.10;99.90
17385;DHT22;8810;48.680;8.894;2022-09-09T03:34:48;13.00;99.90
17385;DHT22;8810;48.680;8.894;2022-09-09T03:37:16;13.00;99.90
17385;DHT22;8810;48.680;8.894;2022-09-09T03:39:44;12.90;99.90
17385;DHT22;8810;48.680;8.894;2022-09-09T03:42:12;12.90;99.90
17385;DHT22;8810;48.680;8.894;2022-09-09T03:44:39;12.80;99.90
17385;DHT22;8810;48.680;8.894;2022-09-09T03:47:07;12.80;99.90
17385;DHT22;8810;48.680;8.894;2022-09-09T03:49:34;12.70;99.90
17385;DHT22;8810;48.680;8.894;2022-09-09T03:52:01;12.70;99.90
17385;DHT22;8810;48.680;8.894;2022-09-09T03:54:29;12.70;99.90
17385;DHT22;8810;48.680;8.894;2022-09-09T03:56:56;12.70;99.90
17385;DHT22;8810;48.680;8.894;2022-09-09T03:59:23;12.60;99.90
17385;DHT22;8810;48.680;8.894;2022-09-09T04:01:50;12.70;99.90
17385;DHT22;8810;48.680;8.894;2022-09-09T04:04:17;12.60;99.90
17385;DHT22;8810;48.680;8.894;2022-09-09T04:06:45;12.70;99.90
17385;DHT22;8810;48.680;8.894;2022-09-09T04:09:13;12.80;99.90
17385;DHT22;8810;48.680;8.894;2022-09-09T04:11:42;12.80;99.90
17385;DHT22;8810;48.680;8.894;2022-09-09T04:14:08;12.90;99.90
17385;DHT22;8810;48.680;8.894;2022-09-09T04:16:35;12.90;99.90
17385;DHT22;8810;48.680;8.894;2022-09-09T04:19:02;12.90;99.90
17385;DHT22;8810;48.680;8.894;2022-09-09T04:21:30;12.90;99.90
17385;DHT22;8810;48.680;8.894;2022-09-09T04:23:57;12.90;99.90
17385;DHT22;8810;48.680;8.894;2022-09-09T04:26:23;13.00;99.90
17385;DHT22;8810;48.680;8.894;2022-09-09T04:28:52;13.00;99.90
17385;DHT22;8810;48.680;8.894;2022-09-09T04:31:20;13.10;99.90
17385;DHT22;8810;48.680;8.894;2022-09-09T04:33:48;13.10;99.90
17385;DHT22;8810;48.680;8.894;2022-09-09T04:36:16;13.10;99.90
17385;DHT22;8810;48.680;8.894;2022-09-09T04:38:43;13.10;99.90
17385;DHT22;8810;48.680;8.894;2022-09-09T04:41:11;13.20;99.90
17385;DHT22;8810;48.680;8.894;2022-09-09T04:43:38;13.20;99.90
17385;DHT22;8810;48.680;8.894;2022-09-09T04:46:06;13.20;99.90
17385;DHT22;8810;48.680;8.894;2022-09-09T04:48:33;13.30;99.90
17385;DHT22;8810;48.680;8.894;2022-09-09T04:51:01;13.30;99.90
17385;DHT22;8810;48.680;8.894;2022-09-09T04:53:29;13.30;99.90
17385;DHT22;8810;48.680;8.894;2022-09-09T04:56:01;13.30;99.90
17385;DHT22;8810;48.680;8.894;2022-09-09T04:58:29;13.30;99.90
17385;DHT22;8810;48.680;8.894;2022-09-09T05:01:03;13.30;99.90
17385;DHT22;8810;48.680;8.894;2022-09-09T05:03:31;13.40;99.90
17385;DHT22;8810;48.680;8.894;2022-09-09T05:06:03;13.40;99.90
17385;DHT22;8810;48.680;8.894;2022-09-09T05:08:30;13.40;99.90
17385;DHT22;8810;48.680;8.894;2022-09-09T05:10:57;13.50;99.90
17385;DHT22;8810;48.680;8.894;2022-09-09T05:13:25;13.50;99.90
17385;DHT22;8810;48.680;8.894;2022-09-09T05:15:52;13.50;99.90
17385;DHT22;8810;48.680;8.894;2022-09-09T05:18:19;13.60;99.90
17385;DHT22;8810;48.680;8.894;2022-09-09T05:20:49;13.50;99.90
17385;DHT22;8810;48.680;8.894;2022-09-09T05:23:16;13.50;99.90
17385;DHT22;8810;48.680;8.894;2022-09-09T05:25:43;13.60;99.90
17385;DHT22;8810;48.680;8.894;2022-09-09T05:28:12;13.60;99.90
17385;DHT22;8810;48.680;8.894;2022-09-09T05:30:39;13.70;99.90
17385;DHT22;8810;48.680;8.894;2022-09-09T05:33:05;13.70;99.90
17385;DHT22;8810;48.680;8.894;2022-09-09T05:35:34;13.70;99.90
17385;DHT22;8810;48.680;8.894;2022-09-09T05:38:02;13.70;99.90
17385;DHT22;8810;48.680;8.894;2022-09-09T05:40:29;13.70;99.90
17385;DHT22;8810;48.680;8.894;2022-09-09T05:43:00;13.70;99.90
17385;DHT22;8810;48.680;8.894;2022-09-09T05:45:27;13.70;99.90
17385;DHT22;8810;48.680;8.894;2022-09-09T05:47:54;13.70;99.90
17385;DHT22;8810;48.680;8.894;2022-09-09T05:50:20;13.80;99.90
17385;DHT22;8810;48.680;8.894;2022-09-09T05:52:47;13.80;99.90
17385;DHT22;8810;48.680;8.894;2022-09-09T05:55:16;13.90;99.90
17385;DHT22;8810;48.680;8.894;2022-09-09T05:57:48;13.90;99.90
17385;DHT22;8810;48.680;8.894;2022-09-09T06:00:17;13.90;99.90
17385;DHT22;8810;48.680;8.894;2022-09-09T06:02:50;14.00;99.90
17385;DHT22;8810;48.680;8.894;2022-09-09T06:05:17;14.10;99.90
17385;DHT22;8810;48.680;8.894;2022-09-09T06:07:44;14.10;99.90
17385;DHT22;8810;48.680;8.894;2022-09-09T06:10:11;14.20;99.90
17385;DHT22;8810;48.680;8.894;2022-09-09T06:12:40;14.30;99.90
17385;DHT22;8810;48.680;8.894;2022-09-09T06:15:08;14.30;99.90
17385;DHT22;8810;48.680;8.894;2022-09-09T06:17:35;14.30;99.90
17385;DHT22;8810;48.680;8.894;2022-09-09T06:20:02;14.40;99.90
17385;DHT22;8810;48.680;8.894;2022-09-09T06:22:29;14.40;99.90
17385;DHT22;8810;48.680;8.894;2022-09-09T06:24:56;14.40;99.90
17385;DHT22;8810;48.680;8.894;2022-09-09T06:27:23;14.50;99.90
17385;DHT22;8810;48.680;8.894;2022-09-09T06:29:52;14.60;99.90
17385;DHT22;8810;48.680;8.894;2022-09-09T06:32:19;14.70;99.90
17385;DHT22;8810;48.680;8.894;2022-09-09T06:34:46;14.70;99.90
17385;DHT22;8810;48.680;8.894;2022-09-09T06:37:14;14.80;99.90
17385;DHT22;8810;48.680;8.894;2022-09-09T06:39:41;14.90;99.90
17385;DHT22;8810;48.680;8.894;2022-09-09T06:42:08;14.90;99.90
17385;DHT22;8810;48.680;8.894;2022-09-09T06:44:35;14.90;99.90
17385;DHT22;8810;48.680;8.894;2022-09-09T06:47:03;15.00;99.90
17385;DHT22;8810;48.680;8.894;2022-09-09T06:49:30;15.00;99.90
17385;DHT22;8810;48.680;8.894;2022-09-09T06:51:57;15.10;99.90
17385;DHT22;8810;48.680;8.894;2022-09-09T06:54:24;15.20;99.90
17385;DHT22;8810;48.680;8.894;2022-09-09T06:56:51;15.30;99.90
17385;DHT22;8810;48.680;8.894;2022-09-09T06:59:18;15.40;99.90
17385;DHT22;8810;48.680;8.894;2022-09-09T07:01:45;15.40;99.90
17385;DHT22;8810;48.680;8.894;2022-09-09T07:04:13;15.50;99.90
17385;DHT22;8810;48.680;8.894;2022-09-09T07:06:42;15.80;99.90
17385;DHT22;8810;48.680;8.894;2022-09-09T07:09:10;16.00;99.90
17385;DHT22;8810;48.680;8.894;2022-09-09T07:11:40;16.20;99.90
17385;DHT22;8810;48.680;8.894;2022-09-09T07:14:08;16.40;99.90
17385;DHT22;8810;48.680;8.894;2022-09-09T07:16:35;16.50;99.90
17385;DHT22;8810;48.680;8.894;2022-09-09T07:19:03;16.60;99.90
17385;DHT22;8810;48.680;8.894;2022-09-09T07:21:32;16.70;99.90
17385;DHT22;8810;48.680;8.894;2022-09-09T07:24:00;16.70;99.90
17385;DHT22;8810;48.680;8.894;2022-09-09T07:26:29;16.80;99.90
17385;DHT22;8810;48.680;8.894;2022-09-09T07:28:56;16.90;99.90
17385;DHT22;8810;48.680;8.894;2022-09-09T07:31:25;17.00;99.90
17385;DHT22;8810;48.680;8.894;2022-09-09T07:33:53;17.10;99.90
17385;DHT22;8810;48.680;8.894;2022-09-09T07:36:21;17.10;99.90
17385;DHT22;8810;48.680;8.894;2022-09-09T07:38:52;17.30;99.90
17385;DHT22;8810;48.680;8.894;2022-09-09T07:41:21;17.70;99.90
17385;DHT22;8810;48.680;8.894;2022-09-09T07:43:49;18.10;99.90
17385;DHT22;8810;48.680;8.894;2022-09-09T07:46:18;18.40;99.90
17385;DHT22;8810;48.680;8.894;2022-09-09T07:48:46;18.60;99.90
17385;DHT22;8810;48.680;8.894;2022-09-09T07:51:18;18.80;99.90
17385;DHT22;8810;48.680;8.894;2022-09-09T07:53:47;19.20;99.90
17385;DHT22;8810;48.680;8.894;2022-09-09T07:56:17;19.40;99.90
17385;DHT22;8810;48.680;8.894;2022-09-09T07:58:46;19.60;99.90
17385;DHT22;8810;48.680;8.894;2022-09-09T08:01:15;19.80;99.90
17385;DHT22;8810;48.680;8.894;2022-09-09T08:03:43;20.20;99.90
17385;DHT22;8810;48.680;8.894;2022-09-09T08:06:11;20.40;99.90
17385;DHT22;8810;48.680;8.894;2022-09-09T08:08:39;20.50;99.90
17385;DHT22;8810;48.680;8.894;2022-09-09T08:11:10;20.60;99.90
17385;DHT22;8810;48.680;8.894;2022-09-09T08:13:39;20.50;99.90
17385;DHT22;8810;48.680;8.894;2022-09-09T08:16:07;20.30;99.90
17385;DHT22;8810;48.680;8.894;2022-09-09T08:18:35;19.90;99.90
17385;DHT22;8810;48.680;8.894;2022-09-09T08:21:06;19.60;99.90
17385;DHT22;8810;48.680;8.894;2022-09-09T08:23:34;19.40;99.90
17385;DHT22;8810;48.680;8.894;2022-09-09T08:26:10;19.20;99.90
17385;DHT22;8810;48.680;8.894;2022-09-09T08:28:40;19.40;99.90
17385;DHT22;8810;48.680;8.894;2022-09-09T08:31:08;19.90;99.90
17385;DHT22;8810;48.680;8.894;2022-09-09T08:33:35;20.10;99.90
17385;DHT22;8810;48.680;8.894;2022-09-09T08:36:04;20.30;99.90
17385;DHT22;8810;48.680;8.894;2022-09-09T08:38:31;20.40;99.90
17385;DHT22;8810;48.680;8.894;2022-09-09T08:41:05;20.50;99.90
17385;DHT22;8810;48.680;8.894;2022-09-09T08:43:34;20.40;99.90
17385;DHT22;8810;48.680;8.894;2022-09-09T08:46:09;20.20;99.90
17385;DHT22;8810;48.680;8.894;2022-09-09T08:48:45;19.90;99.90
17385;DHT22;8810;48.680;8.894;2022-09-09T08:51:14;19.60;99.90
17385;DHT22;8810;48.680;8.894;2022-09-09T08:53:43;19.40;99.90
17385;DHT22;8810;48.680;8.894;2022-09-09T08:56:14;19.00;99.90
17385;DHT22;8810;48.680;8.894;2022-09-09T08:58:47;18.30;99.90
17385;DHT22;8810;48.680;8.894;2022-09-09T09:04:47;17.50;99.90
17385;DHT22;8810;48.680;8.894;2022-09-09T09:07:23;17.00;99.90
17385;DHT22;8810;48.680;8.894;2022-09-09T09:10:00;16.70;99.90
17385;DHT22;8810;48.680;8.894;2022-09-09T09:12:31;16.60;99.90
17385;DHT22;8810;48.680;8.894;2022-09-09T09:15:02;16.70;99.90
17385;DHT22;8810;48.680;8.894;2022-09-09T09:17:31;17.00;99.90
17385;DHT22;8810;48.680;8.894;2022-09-09T09:19:58;17.50;99.90
17385;DHT22;8810;48.680;8.894;2022-09-09T09:22:30;18.20;99.90
17385;DHT22;8810;48.680;8.894;2022-09-09T09:25:05;18.90;99.90
17385;DHT22;8810;48.680;8.894;2022-09-09T09:27:40;19.60;99.90
17385;DHT22;8810;48.680;8.894;2022-09-09T09:30:15;20.40;99.90
17385;DHT22;8810;48.680;8.894;2022-09-09T09:32:54;21.00;99.90
17385;DHT22;8810;48.680;8.894;2022-09-09T09:35:22;21.60;99.90
17385;DHT22;8810;48.680;8.894;2022-09-09T09:37:49;22.10;99.90
17385;DHT22;8810;48.680;8.894;2022-09-09T09:40:18;22.40;99.90
17385;DHT22;8810;48.680;8.894;2022-09-09T09:42:53;22.70;99.90
17385;DHT22;8810;48.680;8.894;2022-09-09T09:45:28;22.90;99.90
17385;DHT22;8810;48.680;8.894;2022-09-09T09:48:03;23.00;99.90
17385;DHT22;8810;48.680;8.894;2022-09-09T09:50:32;23.20;99.90
17385;DHT22;8810;48.680;8.894;2022-09-09T09:53:01;23.20;99.90
17385;DHT22;8810;48.680;8.894;2022-09-09T09:55:30;23.00;99.90
17385;DHT22;8810;48.680;8.894;2022-09-09T09:58:03;22.70;99.90
17385;DHT22;8810;48.680;8.894;2022-09-09T10:00:30;22.60;99.90
17385;DHT22;8810;48.680;8.894;2022-09-09T10:02:59;22.50;99.90
17385;DHT22;8810;48.680;8.894;2022-09-09T10:05:29;22.60;99.90
17385;DHT22;8810;48.680;8.894;2022-09-09T10:08:09;22.60;99.90
17385;DHT22;8810;48.680;8.894;2022-09-09T10:10:45;22.50;99.90
17385;DHT22;8810;48.680;8.894;2022-09-09T10:13:19;22.80;99.90
17385;DHT22;8810;48.680;8.894;2022-09-09T10:15:56;23.00;99.90
17385;DHT22;8810;48.680;8.894;2022-09-09T10:21:36;23.50;99.90
17385;DHT22;8810;48.680;8.894;2022-09-09T10:24:47;23.60;99.90
17385;DHT22;8810;48.680;8.894;2022-09-09T10:27:21;23.60;99.90
17385;DHT22;8810;48.680;8.894;2022-09-09T10:30:02;23.40;99.90
17385;DHT22;8810;48.680;8.894;2022-09-09T10:32:38;23.50;99.90
17385;DHT22;8810;48.680;8.894;2022-09-09T10:35:11;23.50;99.90
17385;DHT22;8810;48.680;8.894;2022-09-09T10:37:52;23.60;99.90
17385;DHT22;8810;48.680;8.894;2022-09-09T10:40:28;23.80;99.90
17385;DHT22;8810;48.680;8.894;2022-09-09T10:43:08;23.60;99.90
17385;DHT22;8810;48.680;8.894;2022-09-09T10:45:45;23.10;99.90
17385;DHT22;8810;48.680;8.894;2022-09-09T10:48:30;22.60;99.90
17385;DHT22;8810;48.680;8.894;2022-09-09T10:51:06;22.30;99.90
17385;DHT22;8810;48.680;8.894;2022-09-09T10:53:46;21.60;99.90
17385;DHT22;8810;48.680;8.894;2022-09-09T10:56:18;21.20;99.90
17385;DHT22;8810;48.680;8.894;2022-09-09T10:58:49;20.90;99.90
17385;DHT22;8810;48.680;8.894;2022-09-09T11:01:22;20.60;99.90
17385;DHT22;8810;48.680;8.894;2022-09-09T11:03:54;20.30;99.90
17385;DHT22;8810;48.680;8.894;2022-09-09T11:06:27;19.90;99.90
17385;DHT22;8810;48.680;8.894;2022-09-09T11:08:57;19.50;99.90
17385;DHT22;8810;48.680;8.894;2022-09-09T11:14:10;18.60;99.90
17385;DHT22;8810;48.680;8.894;2022-09-09T11:16:42;18.10;99.90
17385;DHT22;8810;48.680;8.894;2022-09-09T11:19:16;17.70;99.90
17385;DHT22;8810;48.680;8.894;2022-09-09T11:21:46;17.50;99.90
17385;DHT22;8810;48.680;8.894;2022-09-09T11:24:20;17.20;99.90
17385;DHT22;8810;48.680;8.894;2022-09-09T11:26:52;17.00;99.90
17385;DHT22;8810;48.680;8.894;2022-09-09T11:29:37;16.80;99.90
17385;DHT22;8810;48.680;8.894;2022-09-09T11:32:18;16.60;99.90
17385;DHT22;8810;48.680;8.894;2022-09-09T11:34:53;16.60;99.90
17385;DHT22;8810;48.680;8.894;2022-09-09T11:37:36;16.60;99.90
17385;DHT22;8810;48.680;8.894;2022-09-09T11:40:23;16.70;99.90
17385;DHT22;8810;48.680;8.894;2022-09-09T11:43:02;16.80;99.90
17385;DHT22;8810;48.680;8.894;2022-09-09T11:45:32;17.00;99.90
17385;DHT22;8810;48.680;8.894;2022-09-09T11:48:01;17.10;99.90
17385;DHT22;8810;48.680;8.894;2022-09-09T11:50:35;17.30;99.90
17385;DHT22;8810;48.680;8.894;2022-09-09T11:53:22;17.50;99.90
17385;DHT22;8810;48.680;8.894;2022-09-09T11:56:03;17.80;99.90
17385;DHT22;8810;48.680;8.894;2022-09-09T11:58:36;18.00;99.90
17385;DHT22;8810;48.680;8.894;2022-09-09T12:01:14;18.20;99.90
17385;DHT22;8810;48.680;8.894;2022-09-09T12:03:43;18.40;99.90
17385;DHT22;8810;48.680;8.894;2022-09-09T12:06:15;18.50;99.90
17385;DHT22;8810;48.680;8.894;2022-09-09T12:08:45;18.80;99.90
17385;DHT22;8810;48.680;8.894;2022-09-09T12:11:24;19.30;99.90
17385;DHT22;8810;48.680;8.894;2022-09-09T12:13:54;19.70;99.90
17385;DHT22;8810;48.680;8.894;2022-09-09T12:16:29;20.20;99.90
17385;DHT22;8810;48.680;8.894;2022-09-09T12:19:12;20.60;99.90
17385;DHT22;8810;48.680;8.894;2022-09-09T12:21:45;20.90;99.90
17385;DHT22;8810;48.680;8.894;2022-09-09T12:24:19;20.80;99.90
17385;DHT22;8810;48.680;8.894;2022-09-09T12:26:53;21.10;99.90
17385;DHT22;8810;48.680;8.894;2022-09-09T12:29:26;21.30;99.90
17385;DHT22;8810;48.680;8.894;2022-09-09T12:31:58;21.70;99.90
17385;DHT22;8810;48.680;8.894;2022-09-09T12:34:34;21.90;99.90
17385;DHT22;8810;48.680;8.894;2022-09-09T12:37:06;21.80;99.90
17385;DHT22;8810;48.680;8.894;2022-09-09T12:39:38;21.60;99.90
17385;DHT22;8810;48.680;8.894;2022-09-09T12:42:17;21.50;99.90
17385;DHT22;8810;48.680;8.894;2022-09-09T12:44:51;21.40;99.90
17385;DHT22;8810;48.680;8.894;2022-09-09T12:47:20;21.40;99.90
17385;DHT22;8810;48.680;8.894;2022-09-09T12:49:49;21.50;99.90
17385;DHT22;8810;48.680;8.894;2022-09-09T12:52:22;21.70;99.90
17385;DHT22;8810;48.680;8.894;2022-09-09T12:54:50;22.20;99.90
17385;DHT22;8810;48.680;8.894;2022-09-09T12:57:22;22.60;99.90
17385;DHT22;8810;48.680;8.894;2022-09-09T12:59:51;22.90;99.90
17385;DHT22;8810;48.680;8.894;2022-09-09T13:02:20;23.30;99.90
17385;DHT22;8810;48.680;8.894;2022-09-09T13:08:05;23.20;99.90
17385;DHT22;8810;48.680;8.894;2022-09-09T13:10:35;23.10;99.90
17385;DHT22;8810;48.680;8.894;2022-09-09T13:13:13;23.20;99.90
17385;DHT22;8810;48.680;8.894;2022-09-09T13:15:48;23.20;99.00
17385;DHT22;8810;48.680;8.894;2022-09-09T13:18:16;23.40;99.10
17385;DHT22;8810;48.680;8.894;2022-09-09T13:20:46;23.50;98.10
17385;DHT22;8810;48.680;8.894;2022-09-09T13:23:14;23.50;98.00
17385;DHT22;8810;48.680;8.894;2022-09-09T13:25:53;23.50;97.40
17385;DHT22;8810;48.680;8.894;2022-09-09T13:28:23;23.30;97.30
17385;DHT22;8810;48.680;8.894;2022-09-09T13:30:57;23.20;96.90
17385;DHT22;8810;48.680;8.894;2022-09-09T13:33:32;23.00;97.20
17385;DHT22;8810;48.680;8.894;2022-09-09T13:36:02;22.90;97.00
17385;DHT22;8810;48.680;8.894;2022-09-09T13:38:32;23.00;96.90
17385;DHT22;8810;48.680;8.894;2022-09-09T13:41:01;23.00;97.70
17385;DHT22;8810;48.680;8.894;2022-09-09T13:43:34;23.10;97.90
17385;DHT22;8810;48.680;8.894;2022-09-09T13:46:03;23.00;97.10
17385;DHT22;8810;48.680;8.894;2022-09-09T13:48:30;23.10;97.60
17385;DHT22;8810;48.680;8.894;2022-09-09T13:50:59;23.20;96.20
17385;DHT22;8810;48.680;8.894;2022-09-09T13:53:26;23.30;95.60
17385;DHT22;8810;48.680;8.894;2022-09-09T13:55:54;23.30;95.70
17385;DHT22;8810;48.680;8.894;2022-09-09T13:58:22;23.30;95.90
17385;DHT22;8810;48.680;8.894;2022-09-09T14:00:52;23.50;95.90
17385;DHT22;8810;48.680;8.894;2022-09-09T14:03:19;23.60;95.10
17385;DHT22;8810;48.680;8.894;2022-09-09T14:05:46;23.60;95.00
17385;DHT22;8810;48.680;8.894;2022-09-09T14:08:24;23.40;94.50
17385;DHT22;8810;48.680;8.894;2022-09-09T14:10:51;23.30;95.00
17385;DHT22;8810;48.680;8.894;2022-09-09T14:13:21;23.20;95.20
17385;DHT22;8810;48.680;8.894;2022-09-09T14:15:49;23.10;94.40
17385;DHT22;8810;48.680;8.894;2022-09-09T14:18:17;23.10;95.20
17385;DHT22;8810;48.680;8.894;2022-09-09T14:20:44;23.20;94.10
17385;DHT22;8810;48.680;8.894;2022-09-09T14:23:12;23.00;94.10
17385;DHT22;8810;48.680;8.894;2022-09-09T14:25:42;22.90;93.50
17385;DHT22;8810;48.680;8.894;2022-09-09T14:28:11;22.90;94.10
17385;DHT22;8810;48.680;8.894;2022-09-09T14:30:39;23.00;94.10
17385;DHT22;8810;48.680;8.894;2022-09-09T14:33:07;23.10;94.00
17385;DHT22;8810;48.680;8.894;2022-09-09T14:35:35;23.10;94.30
17385;DHT22;8810;48.680;8.894;2022-09-09T14:38:03;23.10;94.10
17385;DHT22;8810;48.680;8.894;2022-09-09T14:40:30;23.10;93.80
17385;DHT22;8810;48.680;8.894;2022-09-09T14:42:57;23.10;93.70
17385;DHT22;8810;48.680;8.894;2022-09-09T14:45:24;22.90;94.20
17385;DHT22;8810;48.680;8.894;2022-09-09T14:47:52;22.80;94.70
17385;DHT22;8810;48.680;8.894;2022-09-09T14:50:19;22.70;94.40
17385;DHT22;8810;48.680;8.894;2022-09-09T14:52:48;22.60;94.00
17385;DHT22;8810;48.680;8.894;2022-09-09T14:55:16;22.40;94.20
17385;DHT22;8810;48.680;8.894;2022-09-09T14:57:43;22.20;94.90
17385;DHT22;8810;48.680;8.894;2022-09-09T15:00:11;22.30;95.10
17385;DHT22;8810;48.680;8.894;2022-09-09T15:02:39;22.40;94.90
17385;DHT22;8810;48.680;8.894;2022-09-09T15:05:06;22.50;95.00
17385;DHT22;8810;48.680;8.894;2022-09-09T15:07:33;22.50;94.70
17385;DHT22;8810;48.680;8.894;2022-09-09T15:10:03;22.50;94.90
17385;DHT22;8810;48.680;8.894;2022-09-09T15:12:30;22.50;94.90
17385;DHT22;8810;48.680;8.894;2022-09-09T15:14:58;22.60;94.90
17385;DHT22;8810;48.680;8.894;2022-09-09T15:17:25;22.60;95.20
17385;DHT22;8810;48.680;8.894;2022-09-09T15:19:52;22.50;95.30
17385;DHT22;8810;48.680;8.894;2022-09-09T15:22:20;22.60;95.60
17385;DHT22;8810;48.680;8.894;2022-09-09T15:24:47;22.60;95.70
17385;DHT22;8810;48.680;8.894;2022-09-09T15:27:16;22.60;95.30
17385;DHT22;8810;48.680;8.894;2022-09-09T15:29:43;22.50;95.70
17385;DHT22;8810;48.680;8.894;2022-09-09T15:32:10;22.30;95.70
17385;DHT22;8810;48.680;8.894;2022-09-09T15:34:37;22.10;95.10
17385;DHT22;8810;48.680;8.894;2022-09-09T15:37:04;21.70;94.70
17385;DHT22;8810;48.680;8.894;2022-09-09T15:39:31;21.50;95.00
17385;DHT22;8810;48.680;8.894;2022-09-09T15:41:58;21.30;95.30
17385;DHT22;8810;48.680;8.894;2022-09-09T15:44:28;21.10;95.30
17385;DHT22;8810;48.680;8.894;2022-09-09T15:46:55;20.80;95.40
17385;DHT22;8810;48.680;8.894;2022-09-09T15:49:23;20.70;96.00
17385;DHT22;8810;48.680;8.894;2022-09-09T15:51:52;20.60;96.20
17385;DHT22;8810;48.680;8.894;2022-09-09T15:54:20;20.50;96.60
17385;DHT22;8810;48.680;8.894;2022-09-09T15:56:51;20.50;96.90
17385;DHT22;8810;48.680;8.894;2022-09-09T15:59:20;20.40;97.30
17385;DHT22;8810;48.680;8.894;2022-09-09T16:01:48;20.40;97.40
17385;DHT22;8810;48.680;8.894;2022-09-09T16:04:17;20.30;97.60
17385;DHT22;8810;48.680;8.894;2022-09-09T16:06:51;20.30;97.70
17385;DHT22;8810;48.680;8.894;2022-09-09T16:09:20;20.30;97.70
17385;DHT22;8810;48.680;8.894;2022-09-09T16:11:48;20.20;97.60
17385;DHT22;8810;48.680;8.894;2022-09-09T16:14:15;20.10;97.60
17385;DHT22;8810;48.680;8.894;2022-09-09T16:16:43;20.00;97.50
17385;DHT22;8810;48.680;8.894;2022-09-09T16:19:12;19.90;97.90